createdAt,value
2018-11-05T00:01:29.168Z,10.00
2018-11-05T00:03:56.906Z,9.90
2018-11-05T00:06:24.487Z,9.90
2018-11-05T00:08:52.045Z,9.90
2018-11-05T00:11:19.654Z,9.90
2018-11-05T00:13:47.204Z,9.80
2018-11-05T00:16:14.799Z,9.80
2018-11-05T00:18:42.714Z,9.90
2018-11-05T00:21:10.283Z,9.80
2018-11-05T00:23:37.833Z,9.70
2018-11-05T00:26:05.787Z,9.70
2018-11-05T00:28:33.443Z,9.70
2018-11-05T00:31:01.107Z,9.70
2018-11-05T00:33:29.061Z,9.60
2018-11-05T00:35:56.638Z,9.60
2018-11-05T00:38:25.206Z,9.60
2018-11-05T00:40:52.780Z,9.70
2018-11-05T00:43:20.338Z,9.60
2018-11-05T00:45:47.956Z,9.60
2018-11-05T00:48:17.781Z,9.60
2018-11-05T00:50:45.325Z,9.60
2018-11-05T00:58:10.877Z,9.40
2018-11-05T01:00:39.342Z,9.20
2018-11-05T01:03:07.889Z,9.20
2018-11-05T01:05:36.347Z,9.20
2018-11-05T01:08:04.799Z,9.20
2018-11-05T01:10:33.258Z,9.20
2018-11-05T01:13:01.710Z,9.20
2018-11-05T01:15:30.206Z,9.10
2018-11-05T01:17:58.645Z,9.10
2018-11-05T01:20:28.613Z,9.00
2018-11-05T01:22:57.049Z,8.90
2018-11-05T01:25:25.502Z,8.80
2018-11-05T01:27:54.002Z,8.80
2018-11-05T01:30:22.433Z,8.70
2018-11-05T01:32:50.865Z,8.70
2018-11-05T01:35:19.329Z,8.60
2018-11-05T01:37:48.317Z,8.60
2018-11-05T01:40:17.963Z,8.60
2018-11-05T01:42:47.210Z,8.50
2018-11-05T01:45:18.670Z,8.50
2018-11-05T01:47:47.159Z,8.50
2018-11-05T01:50:17.445Z,8.60
2018-11-05T01:52:47.612Z,8.60
2018-11-05T01:55:17.398Z,8.60
2018-11-05T01:57:46.818Z,8.60
2018-11-05T02:10:10.220Z,8.40
2018-11-05T02:12:38.719Z,8.30
2018-11-05T02:15:08.384Z,8.20
2018-11-05T02:17:36.912Z,8.10
2018-11-05T02:20:07.396Z,8.10
2018-11-05T02:22:35.880Z,8.10
2018-11-05T02:25:04.711Z,8.00
2018-11-05T02:27:33.991Z,8.10
2018-11-05T02:30:02.478Z,8.30
2018-11-05T02:32:31.294Z,8.20
2018-11-05T02:34:59.773Z,8.20
2018-11-05T02:37:28.266Z,8.10
2018-11-05T02:39:56.774Z,8.10
2018-11-05T02:42:26.261Z,8.00
2018-11-05T02:44:54.773Z,8.00
2018-11-05T02:47:23.292Z,8.00
2018-11-05T02:49:51.796Z,8.00
2018-11-05T02:52:20.298Z,7.90
2018-11-05T02:54:49.101Z,7.90
2018-11-05T02:57:17.574Z,7.90
2018-11-05T02:59:46.069Z,7.90
2018-11-05T03:07:13.520Z,7.80
2018-11-05T03:09:42.009Z,7.60
2018-11-05T03:12:10.527Z,7.50
2018-11-05T03:14:39.098Z,7.50
2018-11-05T03:17:09.247Z,7.50
2018-11-05T03:19:37.773Z,7.40
2018-11-05T03:22:07.045Z,7.40
2018-11-05T03:24:37.227Z,7.40
2018-11-05T03:27:05.905Z,7.30
2018-11-05T03:29:34.394Z,7.30
2018-11-05T03:32:04.073Z,7.30
2018-11-05T03:34:32.577Z,7.30
2018-11-05T03:37:01.458Z,7.30
2018-11-05T03:39:29.940Z,7.20
2018-11-05T03:41:58.426Z,7.20
2018-11-05T03:44:27.928Z,7.20
2018-11-05T03:46:56.402Z,7.10
2018-11-05T03:49:24.916Z,7.10
2018-11-05T03:51:53.426Z,7.10
2018-11-05T03:54:21.919Z,7.10
2018-11-05T03:56:50.471Z,7.10
2018-11-05T03:59:20.174Z,7.10
2018-11-05T04:01:48.718Z,7.00
2018-11-05T04:04:17.434Z,7.00
2018-11-05T04:06:45.953Z,7.00
2018-11-05T04:14:09.311Z,6.90
2018-11-05T04:16:38.181Z,6.80
2018-11-05T04:19:06.862Z,6.80
2018-11-05T04:21:41.873Z,6.80
2018-11-05T04:24:11.865Z,6.80
2018-11-05T04:26:41.470Z,6.80
2018-11-05T04:29:10.300Z,6.80
2018-11-05T04:31:39.563Z,6.70
2018-11-05T04:34:08.858Z,6.80
2018-11-05T04:36:37.453Z,6.80
2018-11-05T04:39:14.014Z,6.80
2018-11-05T04:41:42.877Z,6.80
2018-11-05T04:44:11.829Z,6.80
2018-11-05T04:46:42.205Z,6.70
2018-11-05T04:49:12.550Z,6.70
2018-11-05T04:51:41.053Z,6.60
2018-11-05T04:54:09.518Z,6.60
2018-11-05T04:56:38.013Z,6.60
2018-11-05T04:59:07.238Z,6.40
2018-11-05T05:01:37.157Z,6.40
2018-11-05T05:04:06.202Z,6.40
2018-11-05T05:06:34.686Z,6.30
2018-11-05T05:09:03.352Z,6.40
2018-11-05T05:11:31.869Z,6.30
2018-11-05T05:14:00.326Z,6.30
2018-11-05T05:16:28.826Z,6.30
2018-11-05T05:18:57.335Z,6.30
2018-11-05T05:21:25.817Z,6.30
2018-11-05T05:23:55.173Z,6.30
2018-11-05T05:26:25.238Z,6.30
2018-11-05T05:28:53.690Z,6.30
2018-11-05T05:31:22.133Z,6.30
2018-11-05T05:33:51.714Z,6.30
2018-11-05T05:36:20.225Z,6.30
2018-11-05T05:38:48.810Z,6.30
2018-11-05T05:41:17.505Z,6.30
2018-11-05T05:43:46.003Z,6.20
2018-11-05T05:51:17.283Z,6.20
2018-11-05T05:53:45.750Z,6.10
2018-11-05T06:01:09.851Z,6.00
2018-11-05T06:03:38.304Z,5.90
2018-11-05T06:06:07.231Z,6.00
2018-11-05T06:08:36.519Z,6.00
2018-11-05T06:11:15.895Z,6.00
2018-11-05T06:13:47.222Z,5.90
2018-11-05T06:16:17.722Z,5.90
2018-11-05T06:18:47.455Z,5.90
2018-11-05T06:21:17.437Z,6.00
2018-11-05T06:23:45.897Z,6.10
2018-11-05T06:31:10.649Z,6.10
2018-11-05T06:33:39.105Z,6.10
2018-11-05T06:36:07.745Z,6.10
2018-11-05T06:38:37.208Z,6.20
2018-11-05T06:41:06.446Z,6.20
2018-11-05T06:43:35.659Z,6.20
2018-11-05T06:46:04.214Z,6.30
2018-11-05T06:48:34.622Z,6.40
2018-11-05T06:51:03.090Z,6.50
2018-11-05T06:53:32.518Z,6.50
2018-11-05T06:56:00.998Z,6.70
2018-11-05T06:58:29.458Z,6.70
2018-11-05T07:00:57.980Z,6.90
2018-11-05T07:03:27.605Z,7.00
2018-11-05T07:05:56.197Z,7.10
2018-11-05T07:08:24.582Z,7.30
2018-11-05T07:10:53.087Z,7.40
2018-11-05T07:13:21.563Z,7.50
2018-11-05T07:15:50.118Z,7.50
2018-11-05T07:18:18.663Z,7.70
2018-11-05T07:20:47.058Z,7.90
2018-11-05T07:23:17.366Z,8.10
2018-11-05T07:25:45.819Z,8.30
2018-11-05T07:33:15.608Z,8.60
2018-11-05T07:35:44.077Z,8.90
2018-11-05T07:38:12.542Z,9.10
2018-11-05T07:40:41.034Z,9.20
2018-11-05T07:43:09.503Z,9.30
2018-11-05T07:45:37.954Z,9.50
2018-11-05T07:48:06.499Z,9.60
2018-11-05T07:50:35.227Z,9.80
2018-11-05T07:53:03.662Z,9.90
2018-11-05T07:55:33.625Z,10.20
2018-11-05T07:58:02.086Z,10.20
2018-11-05T08:00:35.887Z,10.20
2018-11-05T08:03:05.680Z,10.30
2018-11-05T08:05:35.533Z,10.50
2018-11-05T08:08:05.697Z,10.70
2018-11-05T08:10:34.144Z,11.00
2018-11-05T08:13:02.605Z,11.60
2018-11-05T08:15:31.127Z,12.10
2018-11-05T08:18:00.991Z,12.80
2018-11-05T08:20:29.475Z,13.40
2018-11-05T08:22:58.065Z,13.60
2018-11-05T08:25:26.538Z,13.80
2018-11-05T08:27:55.061Z,13.80
2018-11-05T08:30:24.622Z,13.60
2018-11-05T08:32:53.276Z,13.40
2018-11-05T08:35:21.799Z,12.80
2018-11-05T08:37:51.490Z,12.30
2018-11-05T08:40:22.018Z,11.80
2018-11-05T08:42:51.394Z,11.70
2018-11-05T08:45:23.193Z,11.30
2018-11-05T08:47:51.667Z,11.10
2018-11-05T08:50:22.720Z,11.10
2018-11-05T08:52:51.331Z,11.10
2018-11-05T08:55:23.955Z,11.10
2018-11-05T08:57:53.561Z,11.10
2018-11-05T09:00:27.873Z,11.10
2018-11-05T09:02:57.169Z,11.10
2018-11-05T09:05:25.685Z,11.10
2018-11-05T09:07:54.921Z,11.20
2018-11-05T09:10:23.605Z,11.20
2018-11-05T09:12:52.937Z,11.00
2018-11-05T09:15:22.321Z,11.00
2018-11-05T09:17:51.442Z,11.00
2018-11-05T09:20:20.205Z,11.00
2018-11-05T09:22:51.023Z,11.10
2018-11-05T09:25:19.641Z,11.20
2018-11-05T09:27:48.144Z,11.30
2018-11-05T09:30:18.727Z,11.40
2018-11-05T09:32:47.543Z,11.50
2018-11-05T09:35:18.104Z,11.70
2018-11-05T09:37:47.701Z,11.90
2018-11-05T09:40:19.234Z,12.10
2018-11-05T09:42:48.259Z,12.70
2018-11-05T09:45:19.684Z,13.10
2018-11-05T09:47:48.285Z,13.70
2018-11-05T09:50:19.238Z,14.00
2018-11-05T09:52:47.693Z,14.30
2018-11-05T09:55:18.213Z,14.40
2018-11-05T09:57:46.720Z,14.80
2018-11-05T10:02:52.867Z,16.70
2018-11-05T10:05:22.312Z,16.60
2018-11-05T10:07:50.843Z,16.30
2018-11-05T10:10:19.402Z,16.30
2018-11-05T10:12:48.061Z,15.80
2018-11-05T10:15:18.199Z,15.20
2018-11-05T10:17:46.735Z,15.10
2018-11-05T10:25:16.911Z,14.70
2018-11-05T10:27:45.810Z,14.40
2018-11-05T10:30:20.490Z,14.40
2018-11-05T10:32:49.088Z,14.50
2018-11-05T10:35:18.011Z,14.70
2018-11-05T10:37:46.574Z,14.80
2018-11-05T10:40:18.417Z,14.90
2018-11-05T10:42:48.091Z,14.90
2018-11-05T10:45:18.697Z,14.90
2018-11-05T10:47:47.196Z,14.80
2018-11-05T10:50:18.492Z,14.80
2018-11-05T10:52:48.337Z,14.80
2018-11-05T10:55:18.561Z,14.60
2018-11-05T10:57:48.771Z,14.60
2018-11-05T11:00:25.598Z,14.70
2018-11-05T11:02:59.487Z,14.80
2018-11-05T11:05:29.210Z,15.00
2018-11-05T11:07:58.719Z,15.00
2018-11-05T11:10:28.093Z,15.10
2018-11-05T11:12:56.750Z,15.10
2018-11-05T11:15:25.635Z,15.10
2018-11-05T11:17:54.353Z,15.10
2018-11-05T11:20:22.833Z,15.10
2018-11-05T11:22:51.342Z,15.20
2018-11-05T11:25:20.389Z,15.20
2018-11-05T11:27:49.005Z,15.30
2018-11-05T11:30:17.951Z,15.30
2018-11-05T11:32:47.174Z,15.40
2018-11-05T11:40:13.270Z,15.60
2018-11-05T11:42:42.717Z,15.70
2018-11-05T11:45:12.277Z,15.80
2018-11-05T11:47:41.346Z,15.90
2018-11-05T11:50:11.934Z,16.00
2018-11-05T11:52:40.497Z,16.10
2018-11-05T11:55:11.356Z,16.20
2018-11-05T11:57:43.097Z,16.30
2018-11-05T12:00:13.906Z,16.60
2018-11-05T12:02:42.874Z,16.90
2018-11-05T12:05:11.463Z,17.10
2018-11-05T12:07:41.266Z,17.30
2018-11-05T12:10:12.794Z,17.50
2018-11-05T12:12:41.886Z,17.60
2018-11-05T12:15:11.310Z,17.70
2018-11-05T12:17:40.732Z,17.70
2018-11-05T12:20:11.698Z,17.70
2018-11-05T12:22:40.722Z,17.80
2018-11-05T12:25:10.975Z,17.80
2018-11-05T12:27:40.144Z,17.90
2018-11-05T12:30:13.758Z,18.00
2018-11-05T12:32:42.613Z,18.10
2018-11-05T12:35:11.932Z,18.30
2018-11-05T12:37:41.155Z,18.40
2018-11-05T12:40:11.662Z,18.60
2018-11-05T12:42:40.218Z,18.70
2018-11-05T12:45:09.434Z,18.80
2018-11-05T12:47:39.505Z,19.00
2018-11-05T12:50:11.230Z,19.00
2018-11-05T12:52:39.754Z,19.00
2018-11-05T12:55:09.180Z,19.10
2018-11-05T12:57:38.130Z,19.00
2018-11-05T13:00:11.154Z,19.10
2018-11-05T13:02:39.649Z,19.20
2018-11-05T13:05:10.421Z,19.40
2018-11-05T13:07:39.072Z,19.60
2018-11-05T13:10:11.363Z,19.70
2018-11-05T13:12:40.311Z,19.80
2018-11-05T13:15:09.456Z,20.00
2018-11-05T13:17:38.655Z,20.10
2018-11-05T13:20:10.643Z,20.30
2018-11-05T13:22:40.474Z,20.30
2018-11-05T13:25:08.971Z,19.90
2018-11-05T13:27:37.541Z,19.80
2018-11-05T13:30:13.952Z,19.60
2018-11-05T13:32:42.915Z,19.40
2018-11-05T13:35:19.809Z,19.40
2018-11-05T13:37:48.928Z,19.20
2018-11-05T13:40:18.722Z,19.10
2018-11-05T13:42:47.925Z,19.10
2018-11-05T13:45:17.968Z,19.00
2018-11-05T13:47:47.157Z,18.80
2018-11-05T13:55:12.677Z,18.50
2018-11-05T13:57:41.894Z,18.10
2018-11-05T14:00:12.505Z,18.00
2018-11-05T14:02:41.187Z,18.00
2018-11-05T14:05:11.178Z,18.00
2018-11-05T14:07:39.859Z,18.00
2018-11-05T14:10:11.294Z,18.10
2018-11-05T14:12:39.819Z,18.30
2018-11-05T14:15:08.358Z,18.30
2018-11-05T14:17:37.647Z,18.30
2018-11-05T14:20:08.182Z,18.30
2018-11-05T14:22:36.655Z,18.40
2018-11-05T14:25:10.027Z,18.50
2018-11-05T14:27:38.733Z,18.60
2018-11-05T14:30:09.064Z,18.80
2018-11-05T14:32:39.246Z,18.90
2018-11-05T14:35:07.979Z,18.90
2018-11-05T14:37:37.740Z,19.00
2018-11-05T14:40:08.710Z,19.10
2018-11-05T14:42:37.346Z,19.00
2018-11-05T14:45:10.789Z,19.00
2018-11-05T14:47:40.485Z,18.90
2018-11-05T14:50:11.263Z,18.80
2018-11-05T14:52:39.832Z,18.70
2018-11-05T14:55:11.181Z,18.50
2018-11-05T14:57:39.899Z,18.40
2018-11-05T15:00:14.401Z,18.30
2018-11-05T15:02:43.863Z,18.10
2018-11-05T15:05:13.803Z,18.00
2018-11-05T15:07:43.166Z,17.90
2018-11-05T15:10:14.594Z,17.80
2018-11-05T15:12:43.551Z,17.80
2018-11-05T15:15:13.158Z,17.70
2018-11-05T15:17:42.691Z,17.60
2018-11-05T15:20:13.932Z,17.60
2018-11-05T15:22:42.387Z,17.60
2018-11-05T15:25:11.310Z,17.50
2018-11-05T15:27:40.172Z,17.40
2018-11-05T15:30:10.443Z,17.30
2018-11-05T15:32:41.178Z,17.10
2018-11-05T15:35:10.010Z,17.00
2018-11-05T15:37:39.981Z,16.90
2018-11-05T15:40:09.776Z,16.90
2018-11-05T15:42:38.622Z,16.90
2018-11-05T15:45:08.879Z,16.90
2018-11-05T15:47:37.418Z,16.90
2018-11-05T15:50:09.177Z,16.80
2018-11-05T15:52:37.890Z,16.60
2018-11-05T15:55:08.687Z,16.50
2018-11-05T15:57:38.021Z,16.50
2018-11-05T16:05:10.030Z,16.40
2018-11-05T16:07:39.278Z,16.20
2018-11-05T16:10:08.606Z,16.00
2018-11-05T16:12:37.822Z,16.00
2018-11-05T16:15:08.193Z,15.90
2018-11-05T16:17:37.267Z,15.90
2018-11-05T16:20:10.013Z,16.00
2018-11-05T16:22:38.508Z,16.00
2018-11-05T16:25:07.539Z,15.90
2018-11-05T16:27:37.087Z,15.90
2018-11-05T16:30:09.116Z,15.70
2018-11-05T16:32:38.585Z,15.70
2018-11-05T16:35:09.549Z,15.80
2018-11-05T16:37:38.054Z,15.70
2018-11-05T16:40:08.657Z,15.70
2018-11-05T16:42:38.565Z,15.80
2018-11-05T16:45:07.855Z,15.80
2018-11-05T16:47:36.740Z,15.70
2018-11-05T16:50:12.621Z,15.60
2018-11-05T16:52:41.164Z,15.50
2018-11-05T16:55:11.546Z,15.50
2018-11-05T16:57:40.432Z,15.40
2018-11-05T17:00:09.092Z,15.50
2018-11-05T17:02:37.850Z,15.40
2018-11-05T17:05:09.205Z,15.40
2018-11-05T17:07:38.538Z,15.30
2018-11-05T17:10:09.255Z,15.30
2018-11-05T17:12:38.586Z,15.30
2018-11-05T17:15:09.906Z,15.30
2018-11-05T17:17:38.935Z,15.30
2018-11-05T17:20:11.235Z,15.30
2018-11-05T17:22:41.340Z,15.30
2018-11-05T17:25:10.921Z,15.40
2018-11-05T17:27:40.064Z,15.40
2018-11-05T17:30:14.294Z,15.40
2018-11-05T17:32:43.385Z,15.30
2018-11-05T17:35:12.098Z,15.30
2018-11-05T17:37:40.678Z,15.20
2018-11-05T17:40:12.169Z,15.10
2018-11-05T17:42:41.062Z,15.10
2018-11-05T17:45:11.661Z,15.00
2018-11-05T17:47:40.800Z,14.90
2018-11-05T17:50:12.805Z,14.80
2018-11-05T17:52:42.362Z,14.80
2018-11-05T17:55:11.918Z,14.70
2018-11-05T17:57:41.351Z,14.60
2018-11-05T18:00:14.497Z,14.50
2018-11-05T18:02:43.706Z,14.50
2018-11-05T18:05:12.709Z,14.40
2018-11-05T18:07:41.743Z,14.40
2018-11-05T18:10:11.396Z,14.30
2018-11-05T18:12:39.916Z,14.40
2018-11-05T18:15:09.960Z,14.30
2018-11-05T18:17:39.113Z,14.20
2018-11-05T18:20:09.119Z,14.20
2018-11-05T18:22:37.693Z,14.20
2018-11-05T18:25:09.166Z,14.20
2018-11-05T18:27:38.501Z,14.20
2018-11-05T18:30:08.007Z,14.20
2018-11-05T18:32:36.524Z,14.20
2018-11-05T18:35:08.894Z,14.20
2018-11-05T18:37:37.665Z,14.20
2018-11-05T18:40:09.499Z,14.10
2018-11-05T18:42:38.389Z,14.10
2018-11-05T18:45:07.922Z,14.10
2018-11-05T18:47:36.618Z,14.00
2018-11-05T18:50:08.977Z,13.90
2018-11-05T18:52:37.719Z,13.90
2018-11-05T18:55:08.478Z,13.80
2018-11-05T18:57:37.866Z,13.80
2018-11-05T19:05:04.928Z,13.70
2018-11-05T19:07:33.608Z,13.30
2018-11-05T19:10:03.417Z,13.10
2018-11-05T19:12:33.391Z,12.90
2018-11-05T19:15:02.652Z,12.80
2018-11-05T19:17:31.142Z,12.60
2018-11-05T19:19:59.671Z,12.50
2018-11-05T19:22:28.772Z,12.30
2018-11-05T19:24:57.342Z,12.20
2018-11-05T19:27:26.086Z,12.10
2018-11-05T19:29:54.567Z,11.90
2018-11-05T19:32:24.034Z,11.90
2018-11-05T19:34:52.560Z,11.70
2018-11-05T19:37:21.048Z,11.70
2018-11-05T19:39:49.509Z,11.70
2018-11-05T19:42:18.184Z,11.50
2018-11-05T19:44:46.578Z,11.50
2018-11-05T19:47:18.090Z,11.60
2018-11-05T19:49:49.769Z,11.50
2018-11-05T19:52:18.383Z,11.40
2018-11-05T19:54:46.910Z,11.30
2018-11-05T20:02:09.619Z,11.20
2018-11-05T20:04:39.200Z,11.00
2018-11-05T20:07:08.202Z,10.90
2018-11-05T20:09:39.544Z,10.90
2018-11-05T20:12:08.099Z,10.90
2018-11-05T20:14:37.094Z,10.80
2018-11-05T20:17:06.110Z,10.70
2018-11-05T20:19:35.305Z,10.70
2018-11-05T20:22:03.849Z,10.70
2018-11-05T20:24:32.474Z,10.70
2018-11-05T20:27:01.748Z,10.70
2018-11-05T20:29:33.334Z,10.60
2018-11-05T20:32:02.071Z,10.60
2018-11-05T20:34:30.565Z,10.50
2018-11-05T20:36:58.997Z,10.60
2018-11-05T20:39:27.522Z,10.50
2018-11-05T20:41:55.978Z,10.50
2018-11-05T20:44:25.225Z,10.50
2018-11-05T20:46:53.723Z,10.40
2018-11-05T20:49:23.252Z,10.40
2018-11-05T20:51:51.862Z,10.40
2018-11-05T20:54:21.162Z,10.40
2018-11-05T20:56:50.078Z,10.40
2018-11-05T20:59:18.566Z,10.30
2018-11-05T21:01:48.298Z,10.30
2018-11-05T21:04:18.067Z,10.30
2018-11-05T21:06:49.037Z,10.30
2018-11-05T21:09:17.522Z,10.30
2018-11-05T21:11:47.543Z,10.30
2018-11-05T21:14:17.638Z,10.10
2018-11-05T21:16:47.145Z,10.00
2018-11-05T21:19:18.821Z,9.90
2018-11-05T21:21:47.723Z,9.90
2018-11-05T21:24:18.325Z,9.80
2018-11-05T21:26:47.262Z,9.80
2018-11-05T21:29:17.425Z,9.80
2018-11-05T21:31:47.056Z,9.70
2018-11-05T21:39:12.594Z,9.60
2018-11-05T21:41:41.146Z,9.60
2018-11-05T21:44:09.828Z,9.50
2018-11-05T21:46:38.677Z,9.50
2018-11-05T21:49:07.507Z,9.40
2018-11-05T21:51:36.262Z,9.30
2018-11-05T21:54:05.399Z,9.30
2018-11-05T21:56:33.797Z,9.20
2018-11-05T21:59:02.963Z,9.10
2018-11-05T22:01:31.670Z,9.10
2018-11-05T22:04:00.318Z,9.10
2018-11-05T22:06:28.856Z,9.10
2018-11-05T22:08:59.024Z,9.20
2018-11-05T22:11:28.165Z,9.20
2018-11-05T22:13:57.073Z,9.20
2018-11-05T22:16:25.895Z,9.20
2018-11-05T22:18:55.114Z,9.40
2018-11-05T22:21:23.618Z,9.50
2018-11-05T22:23:52.165Z,9.70
2018-11-05T22:26:20.732Z,9.70
2018-11-05T22:28:49.233Z,9.70
2018-11-05T22:31:18.984Z,9.80
2018-11-05T22:33:47.807Z,9.80
2018-11-05T22:36:17.775Z,9.80
2018-11-05T22:38:46.390Z,9.80
2018-11-05T22:46:09.205Z,9.80
2018-11-05T22:48:37.926Z,9.70
2018-11-05T22:51:06.434Z,9.80
2018-11-05T22:53:35.576Z,9.80
2018-11-05T22:56:04.198Z,9.90
2018-11-05T22:58:32.716Z,9.90
2018-11-05T23:01:07.280Z,9.90
2018-11-05T23:03:35.841Z,10.00
2018-11-05T23:06:05.194Z,10.00
2018-11-05T23:08:33.710Z,10.00
2018-11-05T23:11:02.262Z,10.00
2018-11-05T23:13:30.730Z,9.90
2018-11-05T23:15:59.285Z,9.90
2018-11-05T23:18:27.825Z,9.90
2018-11-05T23:20:57.334Z,9.90
2018-11-05T23:23:25.832Z,9.90
2018-11-05T23:25:54.358Z,9.90
2018-11-05T23:28:22.986Z,9.80
2018-11-05T23:30:51.510Z,9.70
2018-11-05T23:33:20.009Z,9.60
2018-11-05T23:35:48.486Z,9.40
2018-11-05T23:38:17.425Z,9.40
2018-11-05T23:40:46.517Z,9.30
2018-11-05T23:43:17.359Z,9.20
2018-11-05T23:45:45.858Z,9.20
2018-11-05T23:53:08.069Z,9.00
2018-11-05T23:55:37.532Z,8.90
2018-11-05T23:58:06.166Z,8.80
